Terminal Aerodrome Forecast
Issued by NWS Knoxville/Tri Cities, TN

Home | Current Version | Previous Version | Text Only | Print | Product List | Glossary On
Versions: 1 2 3 4 5 6 7 8 9 10 11 12 13 14 15 16
000
FTUS44 KMRX 270520
TAFTYS
TAF
KTYS 270520Z 2706/2806 19008KT P6SM BKN250
     FM271200 22010KT P6SM -TSRA BKN050CB
     FM271700 22012G20KT P6SM OVC030
     FM272100 25012KT P6SM BKN050
     FM280100 28005KT P6SM SCT060=

USA.gov is the U.S. government's official web portal to all federal, state and local government web resources and services.